sensor_id;sensor_type;location;lat;lon;timestamp;temperature;humidity
29363;DHT22;16349;53.672;10.014;2022-11-27T00:00:32;7.10;99.90
29363;DHT22;16349;53.672;10.014;2022-11-27T00:02:59;7.00;99.90
29363;DHT22;16349;53.672;10.014;2022-11-27T00:05:25;6.90;99.90
29363;DHT22;16349;53.672;10.014;2022-11-27T00:07:53;6.90;99.90
29363;DHT22;16349;53.672;10.014;2022-11-27T00:10:19;6.90;99.90
29363;DHT22;16349;53.672;10.014;2022-11-27T00:12:46;6.80;99.90
29363;DHT22;16349;53.672;10.014;2022-11-27T00:15:13;6.80;99.90
29363;DHT22;16349;53.672;10.014;2022-11-27T00:17:42;6.70;99.90
29363;DHT22;16349;53.672;10.014;2022-11-27T00:20:09;6.70;99.90
29363;DHT22;16349;53.672;10.014;2022-11-27T00:22:36;6.70;99.90
29363;DHT22;16349;53.672;10.014;2022-11-27T00:25:03;6.70;99.90
29363;DHT22;16349;53.672;10.014;2022-11-27T00:27:30;6.60;99.90
29363;DHT22;16349;53.672;10.014;2022-11-27T00:29:57;6.60;99.90
29363;DHT22;16349;53.672;10.014;2022-11-27T00:32:24;6.60;99.90
29363;DHT22;16349;53.672;10.014;2022-11-27T00:34:52;6.50;99.90
29363;DHT22;16349;53.672;10.014;2022-11-27T00:37:19;6.50;99.90
29363;DHT22;16349;53.672;10.014;2022-11-27T00:39:46;6.50;99.90
29363;DHT22;16349;53.672;10.014;2022-11-27T00:42:13;6.50;99.90
29363;DHT22;16349;53.672;10.014;2022-11-27T00:44:40;6.40;99.90
29363;DHT22;16349;53.672;10.014;2022-11-27T00:47:07;6.40;99.90
29363;DHT22;16349;53.672;10.014;2022-11-27T00:49:34;6.40;99.90
29363;DHT22;16349;53.672;10.014;2022-11-27T00:52:03;6.40;99.90
29363;DHT22;16349;53.672;10.014;2022-11-27T00:54:31;6.40;99.90
29363;DHT22;16349;53.672;10.014;2022-11-27T00:56:57;6.40;99.90
29363;DHT22;16349;53.672;10.014;2022-11-27T00:59:25;6.30;99.90
29363;DHT22;16349;53.672;10.014;2022-11-27T01:01:51;6.20;99.90
29363;DHT22;16349;53.672;10.014;2022-11-27T01:04:19;6.20;99.90
29363;DHT22;16349;53.672;10.014;2022-11-27T01:06:46;6.20;99.90
29363;DHT22;16349;53.672;10.014;2022-11-27T01:09:14;6.10;99.90
29363;DHT22;16349;53.672;10.014;2022-11-27T01:11:42;6.10;99.90
29363;DHT22;16349;53.672;10.014;2022-11-27T01:14:12;6.10;99.90
29363;DHT22;16349;53.672;10.014;2022-11-27T01:16:39;6.10;99.90
29363;DHT22;16349;53.672;10.014;2022-11-27T01:19:08;6.10;99.90
29363;DHT22;16349;53.672;10.014;2022-11-27T01:21:35;6.10;99.90
29363;DHT22;16349;53.672;10.014;2022-11-27T01:24:03;6.00;99.90
29363;DHT22;16349;53.672;10.014;2022-11-27T01:26:32;5.90;99.90
29363;DHT22;16349;53.672;10.014;2022-11-27T01:28:59;6.00;99.90
29363;DHT22;16349;53.672;10.014;2022-11-27T01:31:28;5.90;99.90
29363;DHT22;16349;53.672;10.014;2022-11-27T01:33:57;5.90;99.90
29363;DHT22;16349;53.672;10.014;2022-11-27T01:36:24;5.90;99.90
29363;DHT22;16349;53.672;10.014;2022-11-27T01:38:51;5.90;99.90
29363;DHT22;16349;53.672;10.014;2022-11-27T01:41:20;5.80;99.90
29363;DHT22;16349;53.672;10.014;2022-11-27T01:43:52;5.80;99.90
29363;DHT22;16349;53.672;10.014;2022-11-27T01:46:33;5.80;99.90
29363;DHT22;16349;53.672;10.014;2022-11-27T01:49:17;5.80;99.90
29363;DHT22;16349;53.672;10.014;2022-11-27T01:51:51;5.70;99.90
29363;DHT22;16349;53.672;10.014;2022-11-27T01:54:20;5.70;99.90
29363;DHT22;16349;53.672;10.014;2022-11-27T01:56:52;5.70;99.90
29363;DHT22;16349;53.672;10.014;2022-11-27T01:59:23;5.60;99.90
29363;DHT22;16349;53.672;10.014;2022-11-27T02:01:50;5.60;99.90
29363;DHT22;16349;53.672;10.014;2022-11-27T02:04:17;5.50;99.90
29363;DHT22;16349;53.672;10.014;2022-11-27T02:06:45;5.50;99.90
29363;DHT22;16349;53.672;10.014;2022-11-27T02:09:12;5.50;99.90
29363;DHT22;16349;53.672;10.014;2022-11-27T02:11:45;5.50;99.90
29363;DHT22;16349;53.672;10.014;2022-11-27T02:14:17;5.60;99.90
29363;DHT22;16349;53.672;10.014;2022-11-27T02:16:57;5.50;99.90
29363;DHT22;16349;53.672;10.014;2022-11-27T02:19:34;5.50;99.90
29363;DHT22;16349;53.672;10.014;2022-11-27T02:22:09;5.40;99.90
29363;DHT22;16349;53.672;10.014;2022-11-27T02:24:51;5.40;99.90
29363;DHT22;16349;53.672;10.014;2022-11-27T02:27:59;5.30;99.90
29363;DHT22;16349;53.672;10.014;2022-11-27T02:30:35;5.20;99.90
29363;DHT22;16349;53.672;10.014;2022-11-27T02:33:05;5.20;99.90
29363;DHT22;16349;53.672;10.014;2022-11-27T02:35:40;5.20;99.90
29363;DHT22;16349;53.672;10.014;2022-11-27T02:38:09;5.20;99.90
29363;DHT22;16349;53.672;10.014;2022-11-27T02:40:44;5.20;99.90
29363;DHT22;16349;53.672;10.014;2022-11-27T02:43:17;5.20;99.90
29363;DHT22;16349;53.672;10.014;2022-11-27T02:45:50;5.20;99.90
29363;DHT22;16349;53.672;10.014;2022-11-27T02:48:21;5.10;99.90
29363;DHT22;16349;53.672;10.014;2022-11-27T02:50:49;5.00;99.90
29363;DHT22;16349;53.672;10.014;2022-11-27T02:53:20;5.00;99.90
29363;DHT22;16349;53.672;10.014;2022-11-27T02:55:49;5.00;99.90
29363;DHT22;16349;53.672;10.014;2022-11-27T02:58:21;5.10;99.90
29363;DHT22;16349;53.672;10.014;2022-11-27T03:00:52;5.00;99.90
29363;DHT22;16349;53.672;10.014;2022-11-27T03:03:23;5.10;99.90
29363;DHT22;16349;53.672;10.014;2022-11-27T03:05:55;5.10;99.90
29363;DHT22;16349;53.672;10.014;2022-11-27T03:08:28;5.00;99.90
29363;DHT22;16349;53.672;10.014;2022-11-27T03:11:02;5.00;99.90
29363;DHT22;16349;53.672;10.014;2022-11-27T03:13:31;5.00;99.90
29363;DHT22;16349;53.672;10.014;2022-11-27T03:16:06;4.90;99.90
29363;DHT22;16349;53.672;10.014;2022-11-27T03:18:38;4.90;99.90
29363;DHT22;16349;53.672;10.014;2022-11-27T03:21:17;4.90;99.90
29363;DHT22;16349;53.672;10.014;2022-11-27T03:23:47;4.80;99.90
29363;DHT22;16349;53.672;10.014;2022-11-27T03:26:14;4.80;99.90
29363;DHT22;16349;53.672;10.014;2022-11-27T03:28:42;4.80;99.90
29363;DHT22;16349;53.672;10.014;2022-11-27T03:31:12;4.80;99.90
29363;DHT22;16349;53.672;10.014;2022-11-27T03:33:39;4.80;99.90
29363;DHT22;16349;53.672;10.014;2022-11-27T03:36:12;4.70;99.90
29363;DHT22;16349;53.672;10.014;2022-11-27T03:38:39;4.70;99.90
29363;DHT22;16349;53.672;10.014;2022-11-27T03:41:10;4.70;99.90
29363;DHT22;16349;53.672;10.014;2022-11-27T03:43:41;4.70;99.90
29363;DHT22;16349;53.672;10.014;2022-11-27T03:46:16;4.70;99.90
29363;DHT22;16349;53.672;10.014;2022-11-27T03:48:57;4.70;99.90
29363;DHT22;16349;53.672;10.014;2022-11-27T03:51:32;4.60;99.90
29363;DHT22;16349;53.672;10.014;2022-11-27T03:54:08;4.60;99.90
29363;DHT22;16349;53.672;10.014;2022-11-27T03:56:38;4.60;99.90
29363;DHT22;16349;53.672;10.014;2022-11-27T03:59:09;4.60;99.90
29363;DHT22;16349;53.672;10.014;2022-11-27T04:01:40;4.60;99.90
29363;DHT22;16349;53.672;10.014;2022-11-27T04:04:07;4.60;99.90
29363;DHT22;16349;53.672;10.014;2022-11-27T04:06:34;4.60;99.90
29363;DHT22;16349;53.672;10.014;2022-11-27T04:09:01;4.60;99.90
29363;DHT22;16349;53.672;10.014;2022-11-27T04:11:28;4.60;99.90
29363;DHT22;16349;53.672;10.014;2022-11-27T04:13:55;4.60;99.90
29363;DHT22;16349;53.672;10.014;2022-11-27T04:16:22;4.60;99.90
29363;DHT22;16349;53.672;10.014;2022-11-27T04:18:50;4.60;99.90
29363;DHT22;16349;53.672;10.014;2022-11-27T04:21:17;4.60;99.90
29363;DHT22;16349;53.672;10.014;2022-11-27T04:23:44;4.60;99.90
29363;DHT22;16349;53.672;10.014;2022-11-27T04:26:11;4.60;99.90
29363;DHT22;16349;53.672;10.014;2022-11-27T04:28:38;4.50;99.90
29363;DHT22;16349;53.672;10.014;2022-11-27T04:31:04;4.50;99.90
29363;DHT22;16349;53.672;10.014;2022-11-27T04:33:31;4.50;99.90
29363;DHT22;16349;53.672;10.014;2022-11-27T04:35:59;4.50;99.90
29363;DHT22;16349;53.672;10.014;2022-11-27T04:38:26;4.50;99.90
29363;DHT22;16349;53.672;10.014;2022-11-27T04:40:53;4.50;99.90
29363;DHT22;16349;53.672;10.014;2022-11-27T04:43:20;4.50;99.90
29363;DHT22;16349;53.672;10.014;2022-11-27T04:45:47;4.40;99.90
29363;DHT22;16349;53.672;10.014;2022-11-27T04:48:14;4.40;99.90
29363;DHT22;16349;53.672;10.014;2022-11-27T04:50:40;4.40;99.90
29363;DHT22;16349;53.672;10.014;2022-11-27T04:53:08;4.40;99.90
29363;DHT22;16349;53.672;10.014;2022-11-27T04:55:36;4.40;99.90
29363;DHT22;16349;53.672;10.014;2022-11-27T04:58:02;4.40;99.90
29363;DHT22;16349;53.672;10.014;2022-11-27T05:00:30;4.40;99.90
29363;DHT22;16349;53.672;10.014;2022-11-27T05:02:57;4.40;99.90
29363;DHT22;16349;53.672;10.014;2022-11-27T05:05:24;4.40;99.90
29363;DHT22;16349;53.672;10.014;2022-11-27T05:07:50;4.50;99.90
29363;DHT22;16349;53.672;10.014;2022-11-27T05:10:18;4.50;99.90
29363;DHT22;16349;53.672;10.014;2022-11-27T05:12:45;4.50;99.90
29363;DHT22;16349;53.672;10.014;2022-11-27T05:15:12;4.50;99.90
29363;DHT22;16349;53.672;10.014;2022-11-27T05:17:39;4.50;99.90
29363;DHT22;16349;53.672;10.014;2022-11-27T05:20:07;4.50;99.90
29363;DHT22;16349;53.672;10.014;2022-11-27T05:22:34;4.50;99.90
29363;DHT22;16349;53.672;10.014;2022-11-27T05:25:01;4.60;99.90
29363;DHT22;16349;53.672;10.014;2022-11-27T05:27:29;4.50;99.90
29363;DHT22;16349;53.672;10.014;2022-11-27T05:29:56;4.50;99.90
29363;DHT22;16349;53.672;10.014;2022-11-27T05:32:23;4.50;99.90
29363;DHT22;16349;53.672;10.014;2022-11-27T05:34:49;4.50;99.90
29363;DHT22;16349;53.672;10.014;2022-11-27T05:37:16;4.50;99.90
29363;DHT22;16349;53.672;10.014;2022-11-27T05:39:43;4.50;99.90
29363;DHT22;16349;53.672;10.014;2022-11-27T05:42:10;4.50;99.90
29363;DHT22;16349;53.672;10.014;2022-11-27T05:44:38;4.50;99.90
29363;DHT22;16349;53.672;10.014;2022-11-27T05:47:05;4.40;99.90
29363;DHT22;16349;53.672;10.014;2022-11-27T05:49:32;4.40;99.90
29363;DHT22;16349;53.672;10.014;2022-11-27T05:52:00;4.40;99.90
29363;DHT22;16349;53.672;10.014;2022-11-27T05:54:27;4.40;99.90
29363;DHT22;16349;53.672;10.014;2022-11-27T05:56:54;4.40;99.90
29363;DHT22;16349;53.672;10.014;2022-11-27T05:59:21;4.30;99.90
29363;DHT22;16349;53.672;10.014;2022-11-27T06:01:50;4.30;99.90
29363;DHT22;16349;53.672;10.014;2022-11-27T06:04:17;4.30;99.90
29363;DHT22;16349;53.672;10.014;2022-11-27T06:06:43;4.30;99.90
29363;DHT22;16349;53.672;10.014;2022-11-27T06:09:10;4.30;99.90
29363;DHT22;16349;53.672;10.014;2022-11-27T06:11:38;4.20;99.90
29363;DHT22;16349;53.672;10.014;2022-11-27T06:14:06;4.30;99.90
29363;DHT22;16349;53.672;10.014;2022-11-27T06:16:33;4.30;99.90
29363;DHT22;16349;53.672;10.014;2022-11-27T06:19:02;4.30;99.90
29363;DHT22;16349;53.672;10.014;2022-11-27T06:21:29;4.30;99.90
29363;DHT22;16349;53.672;10.014;2022-11-27T06:23:56;4.30;99.90
29363;DHT22;16349;53.672;10.014;2022-11-27T06:26:25;4.20;99.90
29363;DHT22;16349;53.672;10.014;2022-11-27T06:28:53;4.30;99.90
29363;DHT22;16349;53.672;10.014;2022-11-27T06:31:22;4.20;99.90
29363;DHT22;16349;53.672;10.014;2022-11-27T06:33:52;4.20;99.90
29363;DHT22;16349;53.672;10.014;2022-11-27T06:36:22;4.20;99.90
29363;DHT22;16349;53.672;10.014;2022-11-27T06:38:49;4.20;99.90
29363;DHT22;16349;53.672;10.014;2022-11-27T06:41:17;4.20;99.90
29363;DHT22;16349;53.672;10.014;2022-11-27T06:43:44;4.20;99.90
29363;DHT22;16349;53.672;10.014;2022-11-27T06:46:13;4.20;99.90
29363;DHT22;16349;53.672;10.014;2022-11-27T06:48:41;4.10;99.90
29363;DHT22;16349;53.672;10.014;2022-11-27T06:51:11;4.10;99.90
29363;DHT22;16349;53.672;10.014;2022-11-27T06:53:40;4.10;99.90
29363;DHT22;16349;53.672;10.014;2022-11-27T06:56:08;4.00;99.90
29363;DHT22;16349;53.672;10.014;2022-11-27T06:58:36;4.00;99.90
29363;DHT22;16349;53.672;10.014;2022-11-27T07:01:04;4.00;99.90
29363;DHT22;16349;53.672;10.014;2022-11-27T07:03:32;4.00;99.90
29363;DHT22;16349;53.672;10.014;2022-11-27T07:05:59;3.90;99.90
29363;DHT22;16349;53.672;10.014;2022-11-27T07:08:26;3.90;99.90
29363;DHT22;16349;53.672;10.014;2022-11-27T07:11:00;3.90;99.90
29363;DHT22;16349;53.672;10.014;2022-11-27T07:13:28;3.80;99.90
29363;DHT22;16349;53.672;10.014;2022-11-27T07:15:58;3.90;99.90
29363;DHT22;16349;53.672;10.014;2022-11-27T07:18:25;3.80;99.90
29363;DHT22;16349;53.672;10.014;2022-11-27T07:20:52;3.80;99.90
29363;DHT22;16349;53.672;10.014;2022-11-27T07:23:18;3.80;99.90
29363;DHT22;16349;53.672;10.014;2022-11-27T07:25:45;3.80;99.90
29363;DHT22;16349;53.672;10.014;2022-11-27T07:28:13;3.80;99.90
29363;DHT22;16349;53.672;10.014;2022-11-27T07:30:40;3.70;99.90
29363;DHT22;16349;53.672;10.014;2022-11-27T07:33:07;3.70;99.90
29363;DHT22;16349;53.672;10.014;2022-11-27T07:35:34;3.70;99.90
29363;DHT22;16349;53.672;10.014;2022-11-27T07:38:02;3.70;99.90
29363;DHT22;16349;53.672;10.014;2022-11-27T07:40:28;3.70;99.90
29363;DHT22;16349;53.672;10.014;2022-11-27T07:42:57;3.70;99.90
29363;DHT22;16349;53.672;10.014;2022-11-27T07:45:26;3.70;99.90
29363;DHT22;16349;53.672;10.014;2022-11-27T07:47:53;3.70;99.90
29363;DHT22;16349;53.672;10.014;2022-11-27T07:50:19;3.70;99.90
29363;DHT22;16349;53.672;10.014;2022-11-27T07:52:46;3.70;99.90
29363;DHT22;16349;53.672;10.014;2022-11-27T07:55:13;3.70;99.90
29363;DHT22;16349;53.672;10.014;2022-11-27T07:57:40;3.70;99.90
29363;DHT22;16349;53.672;10.014;2022-11-27T08:00:09;3.80;99.90
29363;DHT22;16349;53.672;10.014;2022-11-27T08:02:37;3.80;99.90
29363;DHT22;16349;53.672;10.014;2022-11-27T08:05:05;3.80;99.90
29363;DHT22;16349;53.672;10.014;2022-11-27T08:07:32;3.80;99.90
29363;DHT22;16349;53.672;10.014;2022-11-27T08:09:59;3.80;99.90
29363;DHT22;16349;53.672;10.014;2022-11-27T08:12:26;3.80;99.90
29363;DHT22;16349;53.672;10.014;2022-11-27T08:14:52;3.90;99.90
29363;DHT22;16349;53.672;10.014;2022-11-27T08:17:20;3.90;99.90
29363;DHT22;16349;53.672;10.014;2022-11-27T08:19:48;4.00;99.90
29363;DHT22;16349;53.672;10.014;2022-11-27T08:22:16;4.10;99.90
29363;DHT22;16349;53.672;10.014;2022-11-27T08:24:45;4.10;99.90
29363;DHT22;16349;53.672;10.014;2022-11-27T08:27:13;4.20;99.90
29363;DHT22;16349;53.672;10.014;2022-11-27T08:29:40;4.20;99.90
29363;DHT22;16349;53.672;10.014;2022-11-27T08:32:06;4.20;99.90
29363;DHT22;16349;53.672;10.014;2022-11-27T08:34:33;4.30;99.90
29363;DHT22;16349;53.672;10.014;2022-11-27T08:37:02;4.40;99.90
29363;DHT22;16349;53.672;10.014;2022-11-27T08:39:29;4.40;99.90
29363;DHT22;16349;53.672;10.014;2022-11-27T08:41:57;4.50;99.90
29363;DHT22;16349;53.672;10.014;2022-11-27T08:44:23;4.50;99.90
29363;DHT22;16349;53.672;10.014;2022-11-27T08:46:50;4.50;99.90
29363;DHT22;16349;53.672;10.014;2022-11-27T08:49:17;4.50;99.90
29363;DHT22;16349;53.672;10.014;2022-11-27T08:51:44;4.50;99.90
29363;DHT22;16349;53.672;10.014;2022-11-27T08:54:12;4.50;99.90
29363;DHT22;16349;53.672;10.014;2022-11-27T08:56:39;4.50;99.90
29363;DHT22;16349;53.672;10.014;2022-11-27T08:59:06;4.60;99.90
29363;DHT22;16349;53.672;10.014;2022-11-27T09:01:32;4.60;99.90
29363;DHT22;16349;53.672;10.014;2022-11-27T09:04:00;4.50;99.90
29363;DHT22;16349;53.672;10.014;2022-11-27T09:06:29;4.50;99.90
29363;DHT22;16349;53.672;10.014;2022-11-27T09:08:57;4.60;99.90
29363;DHT22;16349;53.672;10.014;2022-11-27T09:11:27;4.60;99.90
29363;DHT22;16349;53.672;10.014;2022-11-27T09:13:55;4.60;99.90
29363;DHT22;16349;53.672;10.014;2022-11-27T09:16:23;4.60;99.90
29363;DHT22;16349;53.672;10.014;2022-11-27T09:18:51;4.70;99.90
29363;DHT22;16349;53.672;10.014;2022-11-27T09:21:20;4.80;99.90
29363;DHT22;16349;53.672;10.014;2022-11-27T09:23:50;4.80;99.90
29363;DHT22;16349;53.672;10.014;2022-11-27T09:26:17;4.90;99.90
29363;DHT22;16349;53.672;10.014;2022-11-27T09:28:47;4.90;99.90
29363;DHT22;16349;53.672;10.014;2022-11-27T09:31:14;4.90;99.90
29363;DHT22;16349;53.672;10.014;2022-11-27T09:33:42;4.90;99.90
29363;DHT22;16349;53.672;10.014;2022-11-27T09:36:10;4.90;99.90
29363;DHT22;16349;53.672;10.014;2022-11-27T09:38:37;4.90;99.90
29363;DHT22;16349;53.672;10.014;2022-11-27T09:41:18;4.80;99.90
29363;DHT22;16349;53.672;10.014;2022-11-27T09:43:53;4.90;99.90
29363;DHT22;16349;53.672;10.014;2022-11-27T09:46:27;4.80;99.90
29363;DHT22;16349;53.672;10.014;2022-11-27T09:48:56;4.90;99.90
29363;DHT22;16349;53.672;10.014;2022-11-27T09:51:30;4.90;99.90
29363;DHT22;16349;53.672;10.014;2022-11-27T09:54:04;5.00;99.90
29363;DHT22;16349;53.672;10.014;2022-11-27T09:56:34;5.10;99.90
29363;DHT22;16349;53.672;10.014;2022-11-27T09:59:10;5.10;99.90
29363;DHT22;16349;53.672;10.014;2022-11-27T10:01:40;5.20;99.90
29363;DHT22;16349;53.672;10.014;2022-11-27T10:04:08;5.20;99.90
29363;DHT22;16349;53.672;10.014;2022-11-27T10:06:43;5.20;99.90
29363;DHT22;16349;53.672;10.014;2022-11-27T10:09:18;5.20;99.90
29363;DHT22;16349;53.672;10.014;2022-11-27T10:11:54;5.30;99.90
29363;DHT22;16349;53.672;10.014;2022-11-27T10:14:35;5.20;99.90
29363;DHT22;16349;53.672;10.014;2022-11-27T10:17:10;5.30;99.90
29363;DHT22;16349;53.672;10.014;2022-11-27T10:19:44;5.30;99.90
29363;DHT22;16349;53.672;10.014;2022-11-27T10:22:18;5.30;99.90
29363;DHT22;16349;53.672;10.014;2022-11-27T10:24:56;5.30;99.90
29363;DHT22;16349;53.672;10.014;2022-11-27T10:27:31;5.30;99.90
29363;DHT22;16349;53.672;10.014;2022-11-27T10:30:08;5.30;99.90
29363;DHT22;16349;53.672;10.014;2022-11-27T10:32:38;5.40;99.90
29363;DHT22;16349;53.672;10.014;2022-11-27T10:35:11;5.40;99.90
29363;DHT22;16349;53.672;10.014;2022-11-27T10:37:41;5.40;99.90
29363;DHT22;16349;53.672;10.014;2022-11-27T10:40:24;5.40;99.90
29363;DHT22;16349;53.672;10.014;2022-11-27T10:42:57;5.50;99.90
29363;DHT22;16349;53.672;10.014;2022-11-27T10:45:36;5.50;99.90
29363;DHT22;16349;53.672;10.014;2022-11-27T10:48:03;5.60;99.90
29363;DHT22;16349;53.672;10.014;2022-11-27T10:50:31;5.60;99.90
29363;DHT22;16349;53.672;10.014;2022-11-27T10:52:59;5.60;99.90
29363;DHT22;16349;53.672;10.014;2022-11-27T10:55:37;5.70;99.90
29363;DHT22;16349;53.672;10.014;2022-11-27T10:58:08;5.70;99.90
29363;DHT22;16349;53.672;10.014;2022-11-27T11:00:41;5.70;99.90
29363;DHT22;16349;53.672;10.014;2022-11-27T11:03:15;5.80;99.90
29363;DHT22;16349;53.672;10.014;2022-11-27T11:05:55;5.80;99.90
29363;DHT22;16349;53.672;10.014;2022-11-27T11:08:22;5.90;99.90
29363;DHT22;16349;53.672;10.014;2022-11-27T11:10:53;5.90;99.90
29363;DHT22;16349;53.672;10.014;2022-11-27T11:13:21;6.00;99.90
29363;DHT22;16349;53.672;10.014;2022-11-27T11:15:56;5.90;99.90
29363;DHT22;16349;53.672;10.014;2022-11-27T11:18:24;5.90;99.90
29363;DHT22;16349;53.672;10.014;2022-11-27T11:20:54;6.00;99.90
29363;DHT22;16349;53.672;10.014;2022-11-27T11:23:26;6.00;99.90
29363;DHT22;16349;53.672;10.014;2022-11-27T11:25:58;5.90;99.90
29363;DHT22;16349;53.672;10.014;2022-11-27T11:28:26;6.00;99.90
29363;DHT22;16349;53.672;10.014;2022-11-27T11:31:02;6.00;99.90
29363;DHT22;16349;53.672;10.014;2022-11-27T11:33:30;6.00;99.90
29363;DHT22;16349;53.672;10.014;2022-11-27T11:36:08;6.00;99.90
29363;DHT22;16349;53.672;10.014;2022-11-27T11:38:36;6.00;99.90
29363;DHT22;16349;53.672;10.014;2022-11-27T11:41:05;6.00;99.90
29363;DHT22;16349;53.672;10.014;2022-11-27T11:43:34;6.00;99.90
29363;DHT22;16349;53.672;10.014;2022-11-27T11:46:16;6.00;99.90
29363;DHT22;16349;53.672;10.014;2022-11-27T11:48:52;6.10;99.90
29363;DHT22;16349;53.672;10.014;2022-11-27T11:51:44;6.10;99.90
29363;DHT22;16349;53.672;10.014;2022-11-27T11:54:30;6.10;99.90
29363;DHT22;16349;53.672;10.014;2022-11-27T11:57:02;6.10;99.90
29363;DHT22;16349;53.672;10.014;2022-11-27T11:59:38;6.10;99.90
29363;DHT22;16349;53.672;10.014;2022-11-27T12:02:32;6.10;99.90
29363;DHT22;16349;53.672;10.014;2022-11-27T12:05:15;6.10;99.90
29363;DHT22;16349;53.672;10.014;2022-11-27T12:10:52;6.20;99.90
29363;DHT22;16349;53.672;10.014;2022-11-27T12:13:29;6.20;99.90
29363;DHT22;16349;53.672;10.014;2022-11-27T12:16:05;6.20;99.90
29363;DHT22;16349;53.672;10.014;2022-11-27T12:18:45;6.20;99.90
29363;DHT22;16349;53.672;10.014;2022-11-27T12:21:16;6.30;99.90
29363;DHT22;16349;53.672;10.014;2022-11-27T12:24:00;6.20;99.90
29363;DHT22;16349;53.672;10.014;2022-11-27T12:26:38;6.30;99.90
29363;DHT22;16349;53.672;10.014;2022-11-27T12:29:27;6.30;99.90
29363;DHT22;16349;53.672;10.014;2022-11-27T12:32:18;6.30;99.90
29363;DHT22;16349;53.672;10.014;2022-11-27T12:35:01;6.30;99.90
29363;DHT22;16349;53.672;10.014;2022-11-27T12:37:41;6.40;99.90
29363;DHT22;16349;53.672;10.014;2022-11-27T12:40:23;6.30;99.90
29363;DHT22;16349;53.672;10.014;2022-11-27T12:43:22;6.30;99.90
29363;DHT22;16349;53.672;10.014;2022-11-27T12:45:54;6.40;99.90
29363;DHT22;16349;53.672;10.014;2022-11-27T12:48:25;6.40;99.90
29363;DHT22;16349;53.672;10.014;2022-11-27T12:50:57;6.40;99.90
29363;DHT22;16349;53.672;10.014;2022-11-27T12:53:30;6.30;99.90
29363;DHT22;16349;53.672;10.014;2022-11-27T12:56:07;6.30;99.90
29363;DHT22;16349;53.672;10.014;2022-11-27T12:58:38;6.40;99.90
29363;DHT22;16349;53.672;10.014;2022-11-27T13:01:09;6.30;99.90
29363;DHT22;16349;53.672;10.014;2022-11-27T13:03:43;6.30;99.90
29363;DHT22;16349;53.672;10.014;2022-11-27T13:06:17;6.30;99.90
29363;DHT22;16349;53.672;10.014;2022-11-27T13:08:49;6.30;99.90
29363;DHT22;16349;53.672;10.014;2022-11-27T13:11:24;6.30;99.90
29363;DHT22;16349;53.672;10.014;2022-11-27T13:13:56;6.40;99.90
29363;DHT22;16349;53.672;10.014;2022-11-27T13:16:29;6.30;99.90
29363;DHT22;16349;53.672;10.014;2022-11-27T13:19:03;6.40;99.90
29363;DHT22;16349;53.672;10.014;2022-11-27T13:21:34;6.30;99.90
29363;DHT22;16349;53.672;10.014;2022-11-27T13:24:04;6.30;99.90
29363;DHT22;16349;53.672;10.014;2022-11-27T13:26:33;6.30;99.90
29363;DHT22;16349;53.672;10.014;2022-11-27T13:29:04;6.40;99.90
29363;DHT22;16349;53.672;10.014;2022-11-27T13:31:35;6.30;99.90
29363;DHT22;16349;53.672;10.014;2022-11-27T13:34:06;6.30;99.90
29363;DHT22;16349;53.672;10.014;2022-11-27T13:36:38;6.30;99.90
29363;DHT22;16349;53.672;10.014;2022-11-27T13:39:16;6.30;99.90
29363;DHT22;16349;53.672;10.014;2022-11-27T13:41:47;6.30;99.90
29363;DHT22;16349;53.672;10.014;2022-11-27T13:44:22;6.30;99.90
29363;DHT22;16349;53.672;10.014;2022-11-27T13:46:51;6.30;99.90
29363;DHT22;16349;53.672;10.014;2022-11-27T13:49:24;6.30;99.90
29363;DHT22;16349;53.672;10.014;2022-11-27T13:52:08;6.30;99.90
29363;DHT22;16349;53.672;10.014;2022-11-27T13:54:36;6.30;99.90
29363;DHT22;16349;53.672;10.014;2022-11-27T13:57:09;6.30;99.90
29363;DHT22;16349;53.672;10.014;2022-11-27T13:59:36;6.30;99.90
29363;DHT22;16349;53.672;10.014;2022-11-27T14:02:05;6.30;99.90
29363;DHT22;16349;53.672;10.014;2022-11-27T14:04:33;6.30;99.90
29363;DHT22;16349;53.672;10.014;2022-11-27T14:07:02;6.30;99.90
29363;DHT22;16349;53.672;10.014;2022-11-27T14:09:35;6.30;99.90
29363;DHT22;16349;53.672;10.014;2022-11-27T14:12:17;6.30;99.90
29363;DHT22;16349;53.672;10.014;2022-11-27T14:14:58;6.30;99.90
29363;DHT22;16349;53.672;10.014;2022-11-27T14:17:32;6.30;99.90
29363;DHT22;16349;53.672;10.014;2022-11-27T14:20:18;6.30;99.90
29363;DHT22;16349;53.672;10.014;2022-11-27T14:22:47;6.30;99.90
29363;DHT22;16349;53.672;10.014;2022-11-27T14:25:22;6.30;99.90
29363;DHT22;16349;53.672;10.014;2022-11-27T14:27:57;6.30;99.90
29363;DHT22;16349;53.672;10.014;2022-11-27T14:30:29;6.30;99.90
29363;DHT22;16349;53.672;10.014;2022-11-27T14:32:57;6.30;99.90
29363;DHT22;16349;53.672;10.014;2022-11-27T14:35:25;6.30;99.90
29363;DHT22;16349;53.672;10.014;2022-11-27T14:37:52;6.30;99.90
29363;DHT22;16349;53.672;10.014;2022-11-27T14:40:23;6.30;99.90
29363;DHT22;16349;53.672;10.014;2022-11-27T14:42:50;6.30;99.90
29363;DHT22;16349;53.672;10.014;2022-11-27T14:45:19;6.30;99.90
29363;DHT22;16349;53.672;10.014;2022-11-27T14:47:49;6.30;99.90
29363;DHT22;16349;53.672;10.014;2022-11-27T14:50:17;6.30;99.90
29363;DHT22;16349;53.672;10.014;2022-11-27T14:52:50;6.30;99.90
29363;DHT22;16349;53.672;10.014;2022-11-27T14:55:18;6.30;99.90
29363;DHT22;16349;53.672;10.014;2022-11-27T14:57:48;6.30;99.90
29363;DHT22;16349;53.672;10.014;2022-11-27T15:00:19;6.30;99.90
29363;DHT22;16349;53.672;10.014;2022-11-27T15:02:47;6.30;99.90
29363;DHT22;16349;53.672;10.014;2022-11-27T15:05:20;6.20;99.90
29363;DHT22;16349;53.672;10.014;2022-11-27T15:07:49;6.20;99.90
29363;DHT22;16349;53.672;10.014;2022-11-27T15:10:28;6.20;99.90
29363;DHT22;16349;53.672;10.014;2022-11-27T15:12:58;6.20;99.90
29363;DHT22;16349;53.672;10.014;2022-11-27T15:15:27;6.20;99.90
29363;DHT22;16349;53.672;10.014;2022-11-27T15:17:56;6.20;99.90
29363;DHT22;16349;53.672;10.014;2022-11-27T15:20:25;6.10;99.90
29363;DHT22;16349;53.672;10.014;2022-11-27T15:22:55;6.10;99.90
29363;DHT22;16349;53.672;10.014;2022-11-27T15:25:34;6.10;99.90
29363;DHT22;16349;53.672;10.014;2022-11-27T15:28:23;6.10;99.90
29363;DHT22;16349;53.672;10.014;2022-11-27T15:30:51;6.10;99.90
29363;DHT22;16349;53.672;10.014;2022-11-27T15:33:24;6.10;99.90
29363;DHT22;16349;53.672;10.014;2022-11-27T15:35:53;6.10;99.90
29363;DHT22;16349;53.672;10.014;2022-11-27T15:38:20;6.10;99.90
29363;DHT22;16349;53.672;10.014;2022-11-27T15:40:57;6.10;99.90
29363;DHT22;16349;53.672;10.014;2022-11-27T15:43:27;6.10;99.90
29363;DHT22;16349;53.672;10.014;2022-11-27T15:45:54;6.10;99.90
29363;DHT22;16349;53.672;10.014;2022-11-27T15:48:21;6.00;99.90
29363;DHT22;16349;53.672;10.014;2022-11-27T15:50:48;6.10;99.90
29363;DHT22;16349;53.672;10.014;2022-11-27T15:53:15;6.00;99.90